sensor_id;sensor_type;location;lat;lon;timestamp;noise_LAeq;noise_LA_min;noise_LA_max;noise_LA01;noise_LA95
77133;Laerm;26708;50.304;19.028;2023-05-07T00:00:35;47.42;45.44;50.55;;
77133;Laerm;26708;50.304;19.028;2023-05-07T00:02:41;47.55;45.22;50.82;;
77133;Laerm;26708;50.304;19.028;2023-05-07T00:04:46;47.15;44.99;49.89;;
77133;Laerm;26708;50.304;19.028;2023-05-07T00:06:50;47.21;45.15;49.64;;
77133;Laerm;26708;50.304;19.028;2023-05-07T00:08:57;47.24;44.95;49.76;;
77133;Laerm;26708;50.304;19.028;2023-05-07T00:11:02;42.81;38.02;50.83;;
77133;Laerm;26708;50.304;19.028;2023-05-07T00:13:07;40.65;37.46;47.28;;
77133;Laerm;26708;50.304;19.028;2023-05-07T00:15:12;41.24;37.91;49.08;;
77133;Laerm;26708;50.304;19.028;2023-05-07T00:17:19;40.13;37.66;43.55;;
77133;Laerm;26708;50.304;19.028;2023-05-07T00:19:24;39.99;37.57;43.53;;
77133;Laerm;26708;50.304;19.028;2023-05-07T00:21:29;40.98;38.09;45.33;;
77133;Laerm;26708;50.304;19.028;2023-05-07T00:23:34;41.20;38.36;47.53;;
77133;Laerm;26708;50.304;19.028;2023-05-07T00:25:42;40.82;38.40;43.94;;
77133;Laerm;26708;50.304;19.028;2023-05-07T00:27:47;40.37;38.04;43.26;;
77133;Laerm;26708;50.304;19.028;2023-05-07T00:29:51;40.37;37.75;44.84;;
77133;Laerm;26708;50.304;19.028;2023-05-07T00:31:56;40.44;37.48;47.27;;
77133;Laerm;26708;50.304;19.028;2023-05-07T00:34:04;40.90;36.93;46.27;;
77133;Laerm;26708;50.304;19.028;2023-05-07T00:36:08;40.89;38.25;45.65;;
77133;Laerm;26708;50.304;19.028;2023-05-07T00:38:13;40.37;37.64;45.52;;
77133;Laerm;26708;50.304;19.028;2023-05-07T00:40:19;41.73;38.24;47.54;;
77133;Laerm;26708;50.304;19.028;2023-05-07T00:42:23;40.65;38.24;43.99;;
77133;Laerm;26708;50.304;19.028;2023-05-07T00:44:29;41.04;38.74;45.28;;
77133;Laerm;26708;50.304;19.028;2023-05-07T00:46:35;40.31;37.53;44.24;;
77133;Laerm;26708;50.304;19.028;2023-05-07T00:48:40;39.88;37.79;43.58;;
77133;Laerm;26708;50.304;19.028;2023-05-07T00:50:48;39.95;37.66;44.90;;
77133;Laerm;26708;50.304;19.028;2023-05-07T00:52:54;39.84;37.65;45.17;;
77133;Laerm;26708;50.304;19.028;2023-05-07T00:55:05;39.53;37.15;42.84;;
77133;Laerm;26708;50.304;19.028;2023-05-07T00:57:10;40.07;37.41;44.81;;
77133;Laerm;26708;50.304;19.028;2023-05-07T00:59:16;41.33;37.54;49.08;;
77133;Laerm;26708;50.304;19.028;2023-05-07T01:01:20;40.90;38.49;47.18;;
77133;Laerm;26708;50.304;19.028;2023-05-07T01:03:25;41.92;38.73;48.48;;
77133;Laerm;26708;50.304;19.028;2023-05-07T01:05:31;40.81;37.97;45.64;;
77133;Laerm;26708;50.304;19.028;2023-05-07T01:07:40;40.60;38.17;46.98;;
77133;Laerm;26708;50.304;19.028;2023-05-07T01:09:46;41.09;37.65;47.92;;
77133;Laerm;26708;50.304;19.028;2023-05-07T01:11:53;41.33;37.59;47.48;;
77133;Laerm;26708;50.304;19.028;2023-05-07T01:14:00;40.86;38.15;45.09;;
77133;Laerm;26708;50.304;19.028;2023-05-07T01:16:07;40.29;38.03;43.98;;
77133;Laerm;26708;50.304;19.028;2023-05-07T01:18:14;41.58;37.98;56.96;;
77133;Laerm;26708;50.304;19.028;2023-05-07T01:20:19;42.39;38.47;56.99;;
77133;Laerm;26708;50.304;19.028;2023-05-07T01:22:33;42.11;38.57;55.18;;
77133;Laerm;26708;50.304;19.028;2023-05-07T01:24:39;40.20;37.51;44.16;;
77133;Laerm;26708;50.304;19.028;2023-05-07T01:26:44;39.79;37.40;42.82;;
77133;Laerm;26708;50.304;19.028;2023-05-07T01:28:53;39.85;37.46;43.30;;
77133;Laerm;26708;50.304;19.028;2023-05-07T01:31:03;40.23;37.50;44.57;;
77133;Laerm;26708;50.304;19.028;2023-05-07T01:33:15;40.15;37.47;44.71;;
77133;Laerm;26708;50.304;19.028;2023-05-07T01:35:28;40.56;37.76;47.58;;
77133;Laerm;26708;50.304;19.028;2023-05-07T01:37:38;40.04;37.66;44.06;;
77133;Laerm;26708;50.304;19.028;2023-05-07T01:39:45;40.83;38.76;49.19;;
77133;Laerm;26708;50.304;19.028;2023-05-07T01:41:51;40.54;38.48;42.84;;
77133;Laerm;26708;50.304;19.028;2023-05-07T01:43:59;40.56;37.79;45.72;;
77133;Laerm;26708;50.304;19.028;2023-05-07T01:46:05;40.82;38.28;49.11;;
77133;Laerm;26708;50.304;19.028;2023-05-07T01:48:14;41.20;37.89;50.60;;
77133;Laerm;26708;50.304;19.028;2023-05-07T01:50:20;41.05;37.87;50.46;;
77133;Laerm;26708;50.304;19.028;2023-05-07T01:52:25;41.17;37.60;49.87;;
77133;Laerm;26708;50.304;19.028;2023-05-07T01:54:32;41.41;38.30;49.44;;
77133;Laerm;26708;50.304;19.028;2023-05-07T01:56:38;41.02;37.70;47.68;;
77133;Laerm;26708;50.304;19.028;2023-05-07T01:58:42;41.19;38.28;47.12;;
77133;Laerm;26708;50.304;19.028;2023-05-07T02:00:47;41.80;38.88;48.90;;
77133;Laerm;26708;50.304;19.028;2023-05-07T02:02:52;42.14;38.94;50.90;;
77133;Laerm;26708;50.304;19.028;2023-05-07T02:05:21;41.05;37.57;50.10;;
77133;Laerm;26708;50.304;19.028;2023-05-07T02:07:33;40.68;37.82;46.44;;
77133;Laerm;26708;50.304;19.028;2023-05-07T02:09:41;40.95;37.97;48.46;;
77133;Laerm;26708;50.304;19.028;2023-05-07T02:11:46;42.34;38.01;71.50;;
77133;Laerm;26708;50.304;19.028;2023-05-07T02:13:52;41.14;37.88;47.14;;
77133;Laerm;26708;50.304;19.028;2023-05-07T02:15:58;40.64;37.76;47.86;;
77133;Laerm;26708;50.304;19.028;2023-05-07T02:18:06;41.23;38.00;50.08;;
77133;Laerm;26708;50.304;19.028;2023-05-07T02:20:12;41.17;38.67;46.37;;
77133;Laerm;26708;50.304;19.028;2023-05-07T02:22:18;41.86;38.94;49.22;;
77133;Laerm;26708;50.304;19.028;2023-05-07T02:24:22;41.16;38.06;46.26;;
77133;Laerm;26708;50.304;19.028;2023-05-07T02:26:30;41.80;38.76;55.76;;
77133;Laerm;26708;50.304;19.028;2023-05-07T02:28:35;40.42;37.50;45.78;;
77133;Laerm;26708;50.304;19.028;2023-05-07T02:30:41;41.57;37.40;49.08;;
77133;Laerm;26708;50.304;19.028;2023-05-07T02:32:46;43.01;38.33;54.20;;
77133;Laerm;26708;50.304;19.028;2023-05-07T02:34:51;47.79;38.83;62.07;;
77133;Laerm;26708;50.304;19.028;2023-05-07T02:36:55;49.47;38.71;65.57;;
77133;Laerm;26708;50.304;19.028;2023-05-07T02:39:01;49.50;39.15;63.29;;
77133;Laerm;26708;50.304;19.028;2023-05-07T02:41:07;48.31;38.92;62.82;;
77133;Laerm;26708;50.304;19.028;2023-05-07T02:43:14;50.55;37.86;64.42;;
77133;Laerm;26708;50.304;19.028;2023-05-07T02:45:22;48.34;38.55;64.53;;
77133;Laerm;26708;50.304;19.028;2023-05-07T02:47:30;46.03;37.91;58.12;;
77133;Laerm;26708;50.304;19.028;2023-05-07T02:49:36;47.69;38.44;57.73;;
77133;Laerm;26708;50.304;19.028;2023-05-07T02:51:42;47.22;38.08;59.88;;
77133;Laerm;26708;50.304;19.028;2023-05-07T02:53:54;46.90;38.13;69.24;;
77133;Laerm;26708;50.304;19.028;2023-05-07T02:56:02;45.28;38.50;57.50;;
77133;Laerm;26708;50.304;19.028;2023-05-07T02:58:07;46.05;39.41;62.93;;
77133;Laerm;26708;50.304;19.028;2023-05-07T03:00:21;46.07;38.97;59.78;;
77133;Laerm;26708;50.304;19.028;2023-05-07T03:02:40;43.43;38.50;50.78;;
77133;Laerm;26708;50.304;19.028;2023-05-07T03:04:44;41.61;38.47;47.11;;
77133;Laerm;26708;50.304;19.028;2023-05-07T03:06:49;42.09;37.43;52.83;;
77133;Laerm;26708;50.304;19.028;2023-05-07T03:08:54;43.05;38.87;61.34;;
77133;Laerm;26708;50.304;19.028;2023-05-07T03:10:58;43.58;37.87;58.11;;
77133;Laerm;26708;50.304;19.028;2023-05-07T03:13:07;43.57;38.97;58.68;;
77133;Laerm;26708;50.304;19.028;2023-05-07T03:15:11;41.25;38.01;48.79;;
77133;Laerm;26708;50.304;19.028;2023-05-07T03:17:21;49.65;39.37;63.01;;
77133;Laerm;26708;50.304;19.028;2023-05-07T03:19:27;43.17;39.30;58.22;;
77133;Laerm;26708;50.304;19.028;2023-05-07T03:21:32;44.11;38.31;53.65;;
77133;Laerm;26708;50.304;19.028;2023-05-07T03:23:36;47.11;38.22;61.89;;
77133;Laerm;26708;50.304;19.028;2023-05-07T03:25:42;42.22;38.42;51.83;;
77133;Laerm;26708;50.304;19.028;2023-05-07T03:27:47;41.37;38.42;53.22;;
77133;Laerm;26708;50.304;19.028;2023-05-07T03:29:54;41.57;38.20;49.55;;
77133;Laerm;26708;50.304;19.028;2023-05-07T03:32:00;42.67;38.37;51.22;;
77133;Laerm;26708;50.304;19.028;2023-05-07T03:34:07;42.26;38.07;48.64;;
77133;Laerm;26708;50.304;19.028;2023-05-07T03:36:11;41.16;38.28;46.98;;
77133;Laerm;26708;50.304;19.028;2023-05-07T03:38:17;41.23;38.81;47.17;;
77133;Laerm;26708;50.304;19.028;2023-05-07T03:40:22;42.02;38.92;46.99;;
77133;Laerm;26708;50.304;19.028;2023-05-07T03:42:29;41.72;38.58;50.72;;
77133;Laerm;26708;50.304;19.028;2023-05-07T03:44:35;42.46;38.79;57.54;;
77133;Laerm;26708;50.304;19.028;2023-05-07T03:46:40;42.56;38.40;51.38;;
77133;Laerm;26708;50.304;19.028;2023-05-07T03:48:46;41.28;38.22;45.62;;
77133;Laerm;26708;50.304;19.028;2023-05-07T03:50:57;42.78;38.48;48.66;;
77133;Laerm;26708;50.304;19.028;2023-05-07T03:53:06;41.69;37.99;51.77;;
77133;Laerm;26708;50.304;19.028;2023-05-07T03:55:14;41.66;38.04;49.91;;
77133;Laerm;26708;50.304;19.028;2023-05-07T03:57:25;41.26;38.43;46.67;;
77133;Laerm;26708;50.304;19.028;2023-05-07T03:59:29;41.96;38.96;52.48;;
77133;Laerm;26708;50.304;19.028;2023-05-07T04:01:34;48.46;39.00;63.59;;
77133;Laerm;26708;50.304;19.028;2023-05-07T04:03:40;41.93;38.46;50.30;;
77133;Laerm;26708;50.304;19.028;2023-05-07T04:05:44;42.11;38.09;50.81;;
77133;Laerm;26708;50.304;19.028;2023-05-07T04:07:51;41.48;38.09;48.88;;
77133;Laerm;26708;50.304;19.028;2023-05-07T04:10:03;43.39;38.11;51.67;;
77133;Laerm;26708;50.304;19.028;2023-05-07T04:12:08;43.06;38.83;56.68;;
77133;Laerm;26708;50.304;19.028;2023-05-07T04:14:13;40.64;37.86;45.83;;
77133;Laerm;26708;50.304;19.028;2023-05-07T04:16:18;50.64;38.73;69.31;;
77133;Laerm;26708;50.304;19.028;2023-05-07T04:18:23;42.59;39.11;52.82;;
77133;Laerm;26708;50.304;19.028;2023-05-07T04:20:27;41.83;38.70;46.38;;
77133;Laerm;26708;50.304;19.028;2023-05-07T04:22:38;41.74;39.32;50.03;;
77133;Laerm;26708;50.304;19.028;2023-05-07T04:24:45;41.32;38.13;50.27;;
77133;Laerm;26708;50.304;19.028;2023-05-07T04:26:50;41.74;38.62;53.62;;
77133;Laerm;26708;50.304;19.028;2023-05-07T04:28:57;49.20;39.12;63.13;;
77133;Laerm;26708;50.304;19.028;2023-05-07T04:31:07;48.41;39.45;64.74;;
77133;Laerm;26708;50.304;19.028;2023-05-07T04:33:14;47.36;39.48;63.65;;
77133;Laerm;26708;50.304;19.028;2023-05-07T04:35:21;44.24;38.47;59.68;;
77133;Laerm;26708;50.304;19.028;2023-05-07T04:37:27;47.95;38.67;61.81;;
77133;Laerm;26708;50.304;19.028;2023-05-07T04:39:32;47.38;39.40;61.82;;
77133;Laerm;26708;50.304;19.028;2023-05-07T04:41:41;51.46;39.54;65.15;;
77133;Laerm;26708;50.304;19.028;2023-05-07T04:43:47;55.10;38.56;77.35;;
77133;Laerm;26708;50.304;19.028;2023-05-07T04:45:53;42.57;38.21;58.21;;
77133;Laerm;26708;50.304;19.028;2023-05-07T04:48:01;51.41;39.58;68.63;;
77133;Laerm;26708;50.304;19.028;2023-05-07T04:50:08;43.34;39.21;53.62;;
77133;Laerm;26708;50.304;19.028;2023-05-07T04:52:14;42.21;38.50;51.81;;
77133;Laerm;26708;50.304;19.028;2023-05-07T04:54:20;51.61;38.31;65.72;;
77133;Laerm;26708;50.304;19.028;2023-05-07T04:56:28;53.41;38.79;71.46;;
77133;Laerm;26708;50.304;19.028;2023-05-07T04:58:37;50.48;39.12;66.42;;
77133;Laerm;26708;50.304;19.028;2023-05-07T05:00:43;51.00;40.34;66.79;;
77133;Laerm;26708;50.304;19.028;2023-05-07T05:02:48;53.55;44.60;65.93;;
77133;Laerm;26708;50.304;19.028;2023-05-07T05:04:55;48.66;39.01;58.92;;
77133;Laerm;26708;50.304;19.028;2023-05-07T05:07:01;42.75;38.18;54.38;;
77133;Laerm;26708;50.304;19.028;2023-05-07T05:09:06;42.28;38.67;52.49;;
77133;Laerm;26708;50.304;19.028;2023-05-07T05:11:11;47.71;38.80;64.75;;
77133;Laerm;26708;50.304;19.028;2023-05-07T05:13:17;43.04;38.69;56.14;;
77133;Laerm;26708;50.304;19.028;2023-05-07T05:15:24;44.25;38.84;69.23;;
77133;Laerm;26708;50.304;19.028;2023-05-07T05:17:29;49.67;39.13;65.84;;
77133;Laerm;26708;50.304;19.028;2023-05-07T05:19:36;43.52;39.00;57.73;;
77133;Laerm;26708;50.304;19.028;2023-05-07T05:21:41;49.59;39.81;67.51;;
77133;Laerm;26708;50.304;19.028;2023-05-07T05:23:46;49.44;38.86;66.71;;
77133;Laerm;26708;50.304;19.028;2023-05-07T05:25:56;42.37;38.61;50.81;;
77133;Laerm;26708;50.304;19.028;2023-05-07T05:28:04;49.45;38.82;66.74;;
77133;Laerm;26708;50.304;19.028;2023-05-07T05:30:11;50.85;38.82;69.59;;
77133;Laerm;26708;50.304;19.028;2023-05-07T05:32:21;44.47;38.71;57.30;;
77133;Laerm;26708;50.304;19.028;2023-05-07T05:34:29;42.83;38.29;57.28;;
77133;Laerm;26708;50.304;19.028;2023-05-07T05:36:35;42.20;38.53;48.83;;
77133;Laerm;26708;50.304;19.028;2023-05-07T05:38:40;42.21;39.09;47.40;;
77133;Laerm;26708;50.304;19.028;2023-05-07T05:40:47;42.15;38.66;48.44;;
77133;Laerm;26708;50.304;19.028;2023-05-07T05:42:51;42.59;39.29;52.16;;
77133;Laerm;26708;50.304;19.028;2023-05-07T05:44:57;43.79;39.39;51.51;;
77133;Laerm;26708;50.304;19.028;2023-05-07T05:47:04;43.07;38.83;63.79;;
77133;Laerm;26708;50.304;19.028;2023-05-07T05:49:12;42.44;38.82;50.16;;
77133;Laerm;26708;50.304;19.028;2023-05-07T05:51:18;41.96;38.61;47.95;;
77133;Laerm;26708;50.304;19.028;2023-05-07T05:53:22;51.47;38.39;69.19;;
77133;Laerm;26708;50.304;19.028;2023-05-07T05:55:27;50.04;38.21;64.39;;
77133;Laerm;26708;50.304;19.028;2023-05-07T05:57:35;43.31;38.27;49.38;;
77133;Laerm;26708;50.304;19.028;2023-05-07T05:59:41;53.76;40.23;69.98;;
77133;Laerm;26708;50.304;19.028;2023-05-07T06:01:46;43.16;39.20;49.95;;
77133;Laerm;26708;50.304;19.028;2023-05-07T06:03:52;50.91;40.00;68.01;;
77133;Laerm;26708;50.304;19.028;2023-05-07T06:06:02;44.10;39.66;50.46;;
77133;Laerm;26708;50.304;19.028;2023-05-07T06:08:06;50.31;39.10;67.65;;
77133;Laerm;26708;50.304;19.028;2023-05-07T06:10:12;43.60;38.98;53.01;;
77133;Laerm;26708;50.304;19.028;2023-05-07T06:12:16;42.95;38.91;50.10;;
77133;Laerm;26708;50.304;19.028;2023-05-07T06:14:22;44.86;38.86;65.55;;
77133;Laerm;26708;50.304;19.028;2023-05-07T06:16:29;42.90;39.11;50.79;;
77133;Laerm;26708;50.304;19.028;2023-05-07T06:18:33;54.24;38.98;71.24;;
77133;Laerm;26708;50.304;19.028;2023-05-07T06:20:39;43.36;39.15;51.73;;
77133;Laerm;26708;50.304;19.028;2023-05-07T06:22:53;46.42;38.80;78.36;;
77133;Laerm;26708;50.304;19.028;2023-05-07T06:24:58;51.89;39.41;68.34;;
77133;Laerm;26708;50.304;19.028;2023-05-07T06:27:03;43.30;40.20;49.38;;
77133;Laerm;26708;50.304;19.028;2023-05-07T06:29:09;43.35;39.90;55.97;;
77133;Laerm;26708;50.304;19.028;2023-05-07T06:31:18;49.33;39.66;61.23;;
77133;Laerm;26708;50.304;19.028;2023-05-07T06:33:32;54.37;42.24;68.42;;
77133;Laerm;26708;50.304;19.028;2023-05-07T06:35:39;53.47;40.49;69.03;;
77133;Laerm;26708;50.304;19.028;2023-05-07T06:37:44;43.06;39.20;58.79;;
77133;Laerm;26708;50.304;19.028;2023-05-07T06:39:57;43.59;39.01;56.63;;
77133;Laerm;26708;50.304;19.028;2023-05-07T06:42:02;48.79;38.52;65.70;;
77133;Laerm;26708;50.304;19.028;2023-05-07T06:44:08;53.35;38.39;70.21;;
77133;Laerm;26708;50.304;19.028;2023-05-07T06:46:17;44.01;38.86;61.78;;
77133;Laerm;26708;50.304;19.028;2023-05-07T06:48:23;44.09;40.24;52.82;;
77133;Laerm;26708;50.304;19.028;2023-05-07T06:50:35;49.10;40.16;63.25;;
77133;Laerm;26708;50.304;19.028;2023-05-07T06:52:39;53.10;39.55;71.12;;
77133;Laerm;26708;50.304;19.028;2023-05-07T06:54:44;44.49;39.28;57.52;;
77133;Laerm;26708;50.304;19.028;2023-05-07T06:56:54;50.71;39.32;68.73;;
77133;Laerm;26708;50.304;19.028;2023-05-07T06:59:02;49.85;38.54;67.70;;
77133;Laerm;26708;50.304;19.028;2023-05-07T07:01:12;42.93;39.16;50.94;;
77133;Laerm;26708;50.304;19.028;2023-05-07T07:03:18;42.83;39.51;49.93;;
77133;Laerm;26708;50.304;19.028;2023-05-07T07:05:22;43.76;39.17;55.95;;
77133;Laerm;26708;50.304;19.028;2023-05-07T07:07:28;47.91;39.44;67.62;;
77133;Laerm;26708;50.304;19.028;2023-05-07T07:09:33;44.06;39.20;52.85;;
77133;Laerm;26708;50.304;19.028;2023-05-07T07:11:40;52.21;38.83;66.83;;
77133;Laerm;26708;50.304;19.028;2023-05-07T07:13:48;51.63;39.89;68.81;;
77133;Laerm;26708;50.304;19.028;2023-05-07T07:15:52;52.28;39.79;69.02;;
77133;Laerm;26708;50.304;19.028;2023-05-07T07:17:57;51.69;40.26;68.34;;
77133;Laerm;26708;50.304;19.028;2023-05-07T07:20:04;43.49;39.34;54.87;;
77133;Laerm;26708;50.304;19.028;2023-05-07T07:22:09;44.05;38.89;59.81;;
77133;Laerm;26708;50.304;19.028;2023-05-07T07:24:14;55.58;39.47;74.38;;
77133;Laerm;26708;50.304;19.028;2023-05-07T07:26:24;48.06;39.08;61.69;;
77133;Laerm;26708;50.304;19.028;2023-05-07T07:28:29;68.73;40.57;75.62;;
77133;Laerm;26708;50.304;19.028;2023-05-07T07:30:38;70.06;43.03;75.93;;
77133;Laerm;26708;50.304;19.028;2023-05-07T07:32:43;51.02;40.56;69.43;;
77133;Laerm;26708;50.304;19.028;2023-05-07T07:34:48;52.52;39.41;67.98;;
77133;Laerm;26708;50.304;19.028;2023-05-07T07:36:52;52.97;39.45;75.10;;
77133;Laerm;26708;50.304;19.028;2023-05-07T07:38:59;49.56;40.34;65.31;;
77133;Laerm;26708;50.304;19.028;2023-05-07T07:41:04;43.41;40.02;59.02;;
77133;Laerm;26708;50.304;19.028;2023-05-07T07:43:09;47.67;40.42;63.74;;
77133;Laerm;26708;50.304;19.028;2023-05-07T07:45:14;51.75;40.01;64.18;;
77133;Laerm;26708;50.304;19.028;2023-05-07T07:47:24;48.61;39.88;66.14;;
77133;Laerm;26708;50.304;19.028;2023-05-07T07:49:29;44.69;39.77;53.60;;
77133;Laerm;26708;50.304;19.028;2023-05-07T07:51:38;50.20;40.60;65.52;;
77133;Laerm;26708;50.304;19.028;2023-05-07T07:53:43;54.48;41.36;67.34;;
77133;Laerm;26708;50.304;19.028;2023-05-07T07:55:47;56.61;41.15;72.81;;
77133;Laerm;26708;50.304;19.028;2023-05-07T07:57:56;49.71;39.78;66.34;;
77133;Laerm;26708;50.304;19.028;2023-05-07T08:00:01;52.27;40.45;69.63;;
77133;Laerm;26708;50.304;19.028;2023-05-07T08:02:18;52.67;41.16;66.45;;
77133;Laerm;26708;50.304;19.028;2023-05-07T08:04:32;53.78;40.51;68.18;;
77133;Laerm;26708;50.304;19.028;2023-05-07T08:06:56;48.42;39.91;60.76;;
77133;Laerm;26708;50.304;19.028;2023-05-07T08:09:01;56.38;39.65;73.59;;
77133;Laerm;26708;50.304;19.028;2023-05-07T08:11:09;47.14;38.93;59.53;;
77133;Laerm;26708;50.304;19.028;2023-05-07T08:13:18;43.45;39.94;53.94;;
77133;Laerm;26708;50.304;19.028;2023-05-07T08:15:26;46.35;40.12;59.16;;
77133;Laerm;26708;50.304;19.028;2023-05-07T08:17:31;52.82;39.67;69.04;;
77133;Laerm;26708;50.304;19.028;2023-05-07T08:19:39;44.56;40.02;57.97;;
77133;Laerm;26708;50.304;19.028;2023-05-07T08:21:49;50.68;40.97;65.35;;
77133;Laerm;26708;50.304;19.028;2023-05-07T08:23:59;44.19;40.35;54.10;;
77133;Laerm;26708;50.304;19.028;2023-05-07T08:26:09;47.94;40.51;63.06;;
77133;Laerm;26708;50.304;19.028;2023-05-07T08:28:13;51.46;39.45;67.80;;
77133;Laerm;26708;50.304;19.028;2023-05-07T08:30:19;52.65;39.29;68.97;;
77133;Laerm;26708;50.304;19.028;2023-05-07T08:32:23;46.00;39.63;62.55;;
77133;Laerm;26708;50.304;19.028;2023-05-07T08:34:29;52.34;39.31;71.38;;
77133;Laerm;26708;50.304;19.028;2023-05-07T08:36:39;51.73;40.06;69.71;;
77133;Laerm;26708;50.304;19.028;2023-05-07T08:38:48;64.34;40.36;74.89;;
77133;Laerm;26708;50.304;19.028;2023-05-07T08:40:52;69.52;41.47;75.53;;
77133;Laerm;26708;50.304;19.028;2023-05-07T08:43:00;44.26;38.94;57.88;;
77133;Laerm;26708;50.304;19.028;2023-05-07T08:45:10;46.73;40.44;63.37;;
77133;Laerm;26708;50.304;19.028;2023-05-07T08:47:20;56.45;40.27;69.50;;
77133;Laerm;26708;50.304;19.028;2023-05-07T08:49:29;54.38;41.30;72.88;;
77133;Laerm;26708;50.304;19.028;2023-05-07T08:51:35;50.80;39.80;70.49;;
77133;Laerm;26708;50.304;19.028;2023-05-07T08:53:44;54.40;40.07;71.91;;
77133;Laerm;26708;50.304;19.028;2023-05-07T08:55:54;50.66;40.78;73.79;;
77133;Laerm;26708;50.304;19.028;2023-05-07T08:58:00;44.86;40.72;61.94;;
77133;Laerm;26708;50.304;19.028;2023-05-07T09:00:08;44.79;40.66;53.61;;
77133;Laerm;26708;50.304;19.028;2023-05-07T09:02:14;48.41;40.16;63.83;;
77133;Laerm;26708;50.304;19.028;2023-05-07T09:04:20;47.28;40.87;60.63;;
77133;Laerm;26708;50.304;19.028;2023-05-07T09:06:24;43.93;39.77;53.96;;
77133;Laerm;26708;50.304;19.028;2023-05-07T09:08:33;54.41;40.74;71.64;;
77133;Laerm;26708;50.304;19.028;2023-05-07T09:10:42;53.09;40.84;68.62;;
77133;Laerm;26708;50.304;19.028;2023-05-07T09:12:47;52.36;40.44;67.66;;
77133;Laerm;26708;50.304;19.028;2023-05-07T09:14:53;45.00;39.61;53.52;;
77133;Laerm;26708;50.304;19.028;2023-05-07T09:16:58;46.19;39.98;62.86;;
77133;Laerm;26708;50.304;19.028;2023-05-07T09:19:03;57.43;39.55;74.21;;
77133;Laerm;26708;50.304;19.028;2023-05-07T09:21:10;55.44;39.60;68.55;;
77133;Laerm;26708;50.304;19.028;2023-05-07T09:23:15;42.89;39.03;56.07;;
77133;Laerm;26708;50.304;19.028;2023-05-07T09:25:29;55.21;42.00;72.70;;
77133;Laerm;26708;50.304;19.028;2023-05-07T09:27:42;55.38;41.03;70.92;;
77133;Laerm;26708;50.304;19.028;2023-05-07T09:29:47;47.45;40.73;67.18;;
77133;Laerm;26708;50.304;19.028;2023-05-07T09:31:52;55.02;43.89;70.43;;
77133;Laerm;26708;50.304;19.028;2023-05-07T09:33:57;53.83;41.32;66.73;;
77133;Laerm;26708;50.304;19.028;2023-05-07T09:36:07;52.94;39.49;68.91;;
77133;Laerm;26708;50.304;19.028;2023-05-07T09:38:18;45.83;39.50;63.05;;
77133;Laerm;26708;50.304;19.028;2023-05-07T09:40:30;45.77;40.37;60.25;;
77133;Laerm;26708;50.304;19.028;2023-05-07T09:42:43;52.60;41.47;68.44;;
77133;Laerm;26708;50.304;19.028;2023-05-07T09:44:49;54.91;40.63;71.96;;
77133;Laerm;26708;50.304;19.028;2023-05-07T09:47:00;50.91;45.67;66.26;;
77133;Laerm;26708;50.304;19.028;2023-05-07T09:49:22;53.24;46.03;67.74;;
77133;Laerm;26708;50.304;19.028;2023-05-07T09:51:52;53.39;46.03;70.34;;
77133;Laerm;26708;50.304;19.028;2023-05-07T09:54:04;49.79;45.69;66.58;;
77133;Laerm;26708;50.304;19.028;2023-05-07T09:56:13;55.47;45.94;73.67;;
77133;Laerm;26708;50.304;19.028;2023-05-07T09:58:23;53.09;45.91;71.06;;
77133;Laerm;26708;50.304;19.028;2023-05-07T10:00:32;59.21;46.68;71.12;;
77133;Laerm;26708;50.304;19.028;2023-05-07T10:02:47;55.34;46.31;75.95;;
77133;Laerm;26708;50.304;19.028;2023-05-07T10:04:58;55.08;45.51;70.58;;
77133;Laerm;26708;50.304;19.028;2023-05-07T10:07:09;48.39;45.58;56.28;;
77133;Laerm;26708;50.304;19.028;2023-05-07T10:09:15;53.48;45.73;66.21;;
77133;Laerm;26708;50.304;19.028;2023-05-07T10:11:22;52.94;45.64;77.05;;
77133;Laerm;26708;50.304;19.028;2023-05-07T10:13:32;51.78;45.85;66.57;;
77133;Laerm;26708;50.304;19.028;2023-05-07T10:15:40;57.80;43.82;72.83;;
77133;Laerm;26708;50.304;19.028;2023-05-07T10:17:46;53.70;39.73;66.84;;
77133;Laerm;26708;50.304;19.028;2023-05-07T10:19:54;50.34;41.05;67.37;;
77133;Laerm;26708;50.304;19.028;2023-05-07T10:22:05;53.83;39.26;69.98;;
77133;Laerm;26708;50.304;19.028;2023-05-07T10:24:22;57.86;52.57;69.41;;
77133;Laerm;26708;50.304;19.028;2023-05-07T10:26:35;56.17;43.38;68.15;;
77133;Laerm;26708;50.304;19.028;2023-05-07T10:28:51;51.74;43.17;68.78;;
77133;Laerm;26708;50.304;19.028;2023-05-07T10:31:29;54.06;42.14;72.89;;
77133;Laerm;26708;50.304;19.028;2023-05-07T10:33:42;53.19;42.86;73.55;;
77133;Laerm;26708;50.304;19.028;2023-05-07T10:35:51;45.48;42.18;50.40;;
77133;Laerm;26708;50.304;19.028;2023-05-07T10:37:56;53.26;42.44;69.22;;
77133;Laerm;26708;50.304;19.028;2023-05-07T10:40:06;45.30;40.29;60.00;;
77133;Laerm;26708;50.304;19.028;2023-05-07T10:42:14;54.62;40.74;67.67;;
77133;Laerm;26708;50.304;19.028;2023-05-07T10:44:29;50.01;41.03;66.36;;
77133;Laerm;26708;50.304;19.028;2023-05-07T10:46:41;46.36;40.13;57.48;;
77133;Laerm;26708;50.304;19.028;2023-05-07T10:49:10;54.80;39.96;74.13;;
77133;Laerm;26708;50.304;19.028;2023-05-07T10:51:41;51.94;40.03;71.23;;
77133;Laerm;26708;50.304;19.028;2023-05-07T10:54:20;54.38;40.29;70.68;;
77133;Laerm;26708;50.304;19.028;2023-05-07T10:56:32;51.13;40.25;67.90;;
77133;Laerm;26708;50.304;19.028;2023-05-07T10:58:43;45.86;41.71;57.07;;
77133;Laerm;26708;50.304;19.028;2023-05-07T11:01:00;48.98;41.36;63.80;;
77133;Laerm;26708;50.304;19.028;2023-05-07T11:03:14;57.79;42.34;71.93;;
77133;Laerm;26708;50.304;19.028;2023-05-07T11:05:27;45.83;41.17;57.79;;
77133;Laerm;26708;50.304;19.028;2023-05-07T11:07:54;55.11;41.47;71.28;;
77133;Laerm;26708;50.304;19.028;2023-05-07T11:10:07;44.10;40.33;52.60;;
77133;Laerm;26708;50.304;19.028;2023-05-07T11:12:48;51.63;40.61;70.37;;
77133;Laerm;26708;50.304;19.028;2023-05-07T11:14:58;44.37;39.97;52.45;;
77133;Laerm;26708;50.304;19.028;2023-05-07T11:17:13;50.75;40.29;67.71;;
77133;Laerm;26708;50.304;19.028;2023-05-07T11:19:48;49.59;41.21;64.92;;
77133;Laerm;26708;50.304;19.028;2023-05-07T11:22:36;51.21;41.36;66.66;;
77133;Laerm;26708;50.304;19.028;2023-05-07T11:25:01;50.84;40.20;69.01;;
77133;Laerm;26708;50.304;19.028;2023-05-07T11:27:07;51.62;41.42;66.93;;
77133;Laerm;26708;50.304;19.028;2023-05-07T11:29:18;50.47;40.96;65.79;;
77133;Laerm;26708;50.304;19.028;2023-05-07T11:31:27;57.26;40.94;75.28;;
77133;Laerm;26708;50.304;19.028;2023-05-07T11:33:38;43.76;39.12;53.55;;
77133;Laerm;26708;50.304;19.028;2023-05-07T11:35:53;52.53;40.34;67.98;;
77133;Laerm;26708;50.304;19.028;2023-05-07T11:38:05;51.02;39.57;67.44;;
77133;Laerm;26708;50.304;19.028;2023-05-07T11:40:12;48.76;39.93;63.66;;
77133;Laerm;26708;50.304;19.028;2023-05-07T11:42:27;52.15;40.71;71.31;;
77133;Laerm;26708;50.304;19.028;2023-05-07T11:44:43;57.44;41.82;75.97;;
77133;Laerm;26708;50.304;19.028;2023-05-07T11:46:49;50.56;41.92;66.57;;